LFGA

Details ICAO LFGA (CMR)
Name Houssen
Region France
Timezone Europe/Paris (UTC+1.0)
Plans Departing 38
Arriving 28
Stats Elevation 627 ft / 191 m (AMSL)
Location 48.109701° 7.358965°
Runways 1
Magnetic Variation 2.036° E
Sunrise 2017-12-13 07:13:58 UTC / 2017-12-13 08:13:58 Local
Sunset 2017-12-13 15:38:23 UTC / 2017-12-13 16:38:23 Local
Advertisement - Login to hide

Runways

ID Width Length Bearing (true) Bearing (mag) Surface Threshold Offset Overrun Length
01 98 ft / 30 m 5,298 ft / 1,615 m 10.98° 8.94° Asphalt 689 ft / 210 m 0 ft / 0 m
19 98 ft / 30 m 5,298 ft / 1,615 m 190.98° 188.94° Asphalt 0 ft / 0 m 0 ft / 0 m

Approach Navaids

Runway Type Ident Frequency Range Bearing (true) Bearing (mag) Slope Elevation
19 Localiser HO 110.70 MHz 18 nm / 33 km 191.00° 188.96° - 627 ft / 191 m (AMSL)
19 Glidescope HO 110.70 MHz 10 nm / 19 km 190.98° 188.94° 3.80° 627 ft / 191 m (AMSL)

Map

Weather


0- 5 10 15 20 25 30 35+ Temperature / ° C

Clouds and Precipitation
Forecast for 2017-12-14 00:00 UTC. Updated an hour ago

Ground ~20,000 ft ~40,000 ft Winds

METAR

LFGA 132030Z AUTO 16011KT 9999 -RA FEW014/// BKN036/// OVC044/// ///TCU 06/04 Q1000

TAF

Not found

Frequencies

Recorded 119.00 MHz HOUSSEN FSS
Unicom 119.00 MHz HOUSSEN MULT
Approach 119.35 MHz BASLE APP
Recorded 121.87 MHz LFGA ATIS
Tower 119.00 MHz HOUSSEN TWR
Approach 118.95 MHz COLMAR APP
Warning: Do not use this data for real-world aviation or navigation. No guarantee of current accuracy is given.